createdAt,value
2018-12-21T00:00:36.629Z,8.96
2018-12-21T00:01:36.680Z,9.01
2018-12-21T00:02:36.628Z,8.99
2018-12-21T00:03:36.598Z,8.98
2018-12-21T00:04:36.584Z,8.92
2018-12-21T00:05:36.578Z,8.89
2018-12-21T00:06:36.564Z,8.93
2018-12-21T00:07:36.575Z,9.03
2018-12-21T00:08:36.541Z,8.92
2018-12-21T00:09:36.531Z,8.93
2018-12-21T00:10:36.521Z,8.98
2018-12-21T00:11:36.508Z,8.95
2018-12-21T00:12:36.538Z,8.88
2018-12-21T00:13:36.490Z,8.95
2018-12-21T00:14:36.474Z,8.92
2018-12-21T00:15:36.468Z,8.86
2018-12-21T00:16:36.455Z,8.89
2018-12-21T00:17:36.569Z,8.93
2018-12-21T00:18:36.453Z,8.81
2018-12-21T00:19:36.419Z,8.80
2018-12-21T00:20:36.415Z,8.88
2018-12-21T00:21:36.397Z,8.92
2018-12-21T00:22:36.390Z,8.88
2018-12-21T00:23:36.402Z,8.85
2018-12-21T00:24:36.368Z,8.83
2018-12-21T00:25:36.354Z,8.88
2018-12-21T00:26:36.346Z,8.88
2018-12-21T00:27:36.333Z,8.99
2018-12-21T00:28:36.347Z,8.80
2018-12-21T00:29:36.310Z,8.83
2018-12-21T00:30:36.299Z,8.88
2018-12-21T00:31:36.296Z,8.88
2018-12-21T00:32:36.277Z,8.90
2018-12-21T00:33:36.290Z,8.83
2018-12-21T00:34:36.258Z,8.83
2018-12-21T00:35:36.245Z,8.83
2018-12-21T00:36:36.234Z,8.88
2018-12-21T00:37:36.224Z,8.90
2018-12-21T00:38:36.234Z,8.85
2018-12-21T00:39:36.199Z,8.80
2018-12-21T00:40:36.190Z,8.80
2018-12-21T00:41:36.178Z,8.86
2018-12-21T00:42:36.168Z,8.85
2018-12-21T00:43:36.178Z,8.90
2018-12-21T00:44:36.153Z,8.83
2018-12-21T00:45:36.137Z,8.90
2018-12-21T00:46:36.208Z,8.83
2018-12-21T00:47:36.112Z,8.85
2018-12-21T00:48:36.124Z,8.81
2018-12-21T00:49:36.097Z,8.80
2018-12-21T00:50:36.082Z,8.85
2018-12-21T00:51:36.071Z,8.95
2018-12-21T00:52:36.062Z,8.88
2018-12-21T00:53:36.069Z,8.80
2018-12-21T00:54:36.071Z,8.92
2018-12-21T00:55:36.028Z,8.85
2018-12-21T00:56:36.018Z,8.93
2018-12-21T00:57:36.003Z,8.86
2018-12-21T00:58:36.014Z,8.88
2018-12-21T00:59:35.983Z,8.88
2018-12-21T01:00:35.972Z,8.80
2018-12-21T01:01:35.963Z,8.85
2018-12-21T01:02:35.947Z,8.90
2018-12-21T01:03:35.959Z,8.78
2018-12-21T01:04:35.931Z,8.86
2018-12-21T01:05:35.916Z,8.83
2018-12-21T01:06:35.904Z,8.92
2018-12-21T01:07:35.904Z,8.95
2018-12-21T01:08:35.928Z,8.93
2018-12-21T01:09:35.870Z,8.85
2018-12-21T01:10:35.864Z,8.88
2018-12-21T01:11:35.848Z,8.86
2018-12-21T01:12:35.838Z,8.83
2018-12-21T01:13:35.829Z,8.83
2018-12-21T01:14:35.839Z,8.99
2018-12-21T01:15:35.807Z,8.85
2018-12-21T01:16:35.793Z,8.93
2018-12-21T01:17:35.787Z,8.93
2018-12-21T01:18:35.771Z,8.92
2018-12-21T01:19:35.787Z,8.93
2018-12-21T01:20:35.754Z,8.81
2018-12-21T01:21:38.882Z,8.90
2018-12-21T01:22:35.727Z,8.83
2018-12-21T01:23:35.716Z,8.93
2018-12-21T01:24:35.732Z,8.83
2018-12-21T01:25:35.693Z,8.89
2018-12-21T01:26:35.683Z,8.90
2018-12-21T01:27:35.674Z,8.95
2018-12-21T01:28:35.664Z,8.95
2018-12-21T01:29:35.679Z,8.95
2018-12-21T01:30:35.640Z,8.99
2018-12-21T01:31:35.628Z,8.89
2018-12-21T01:32:35.617Z,8.96
2018-12-21T01:33:35.609Z,9.01
2018-12-21T01:34:35.622Z,8.90
2018-12-21T01:35:35.587Z,8.99
2018-12-21T01:36:35.573Z,8.96
2018-12-21T01:37:35.561Z,8.92
2018-12-21T01:38:35.550Z,8.99
2018-12-21T01:39:35.563Z,9.04
2018-12-21T01:40:35.530Z,9.01
2018-12-21T01:41:35.521Z,9.03
2018-12-21T01:42:35.512Z,8.99
2018-12-21T01:43:35.500Z,8.99
2018-12-21T01:44:35.529Z,8.98
2018-12-21T01:45:35.473Z,9.01
2018-12-21T01:46:35.465Z,9.03
2018-12-21T01:47:35.458Z,9.08
2018-12-21T01:48:35.458Z,9.03
2018-12-21T01:49:35.431Z,9.04
2018-12-21T01:50:35.444Z,9.09
2018-12-21T01:51:35.412Z,9.08
2018-12-21T01:52:35.398Z,9.12
2018-12-21T01:53:35.390Z,9.01
2018-12-21T01:54:35.377Z,9.08
2018-12-21T01:55:35.387Z,9.09
2018-12-21T01:56:35.363Z,9.12
2018-12-21T01:57:35.342Z,9.12
2018-12-21T01:58:35.331Z,9.15
2018-12-21T01:59:35.361Z,9.12
2018-12-21T02:00:35.336Z,9.06
2018-12-21T02:01:35.298Z,9.06
2018-12-21T02:02:35.289Z,9.11
2018-12-21T02:03:35.277Z,9.11
2018-12-21T02:04:35.268Z,9.01
2018-12-21T02:05:35.278Z,9.11
2018-12-21T02:06:35.244Z,9.09
2018-12-21T02:07:35.232Z,9.06
2018-12-21T02:08:35.291Z,9.03
2018-12-21T02:09:35.213Z,9.06
2018-12-21T02:10:35.223Z,9.09
2018-12-21T02:11:35.194Z,9.11
2018-12-21T02:12:35.180Z,9.03
2018-12-21T02:13:35.166Z,9.09
2018-12-21T02:14:35.155Z,9.04
2018-12-21T02:15:35.213Z,9.14
2018-12-21T02:16:35.135Z,9.15
2018-12-21T02:17:35.138Z,9.22
2018-12-21T02:18:35.115Z,9.15
2018-12-21T02:19:35.102Z,9.19
2018-12-21T02:20:35.117Z,9.19
2018-12-21T02:21:35.080Z,9.18
2018-12-21T02:22:35.068Z,9.16
2018-12-21T02:23:35.065Z,9.19
2018-12-21T02:24:35.047Z,9.14
2018-12-21T02:25:35.131Z,9.22
2018-12-21T02:26:35.024Z,9.14
2018-12-21T02:27:35.018Z,9.19
2018-12-21T02:28:35.006Z,9.18
2018-12-21T02:29:35.053Z,9.09
2018-12-21T02:30:35.007Z,9.15
2018-12-21T02:31:35.014Z,9.15
2018-12-21T02:32:34.958Z,9.22
2018-12-21T02:33:34.947Z,9.22
2018-12-21T02:34:34.938Z,9.15
2018-12-21T02:35:34.962Z,9.18
2018-12-21T02:36:34.959Z,9.16
2018-12-21T02:37:34.905Z,9.24
2018-12-21T02:38:34.894Z,9.18
2018-12-21T02:39:34.882Z,9.19
2018-12-21T02:40:34.879Z,9.11
2018-12-21T02:41:34.885Z,9.19
2018-12-21T02:42:34.854Z,9.15
2018-12-21T02:43:34.843Z,9.16
2018-12-21T02:44:34.827Z,9.18
2018-12-21T02:45:34.822Z,9.19
2018-12-21T02:46:34.828Z,9.19
2018-12-21T02:47:34.794Z,9.16
2018-12-21T02:48:34.785Z,9.18
2018-12-21T02:49:34.774Z,9.18
2018-12-21T02:50:34.765Z,9.23
2018-12-21T02:51:34.775Z,9.24
2018-12-21T02:52:34.757Z,9.26
2018-12-21T02:53:34.729Z,9.18
2018-12-21T02:54:34.772Z,9.30
2018-12-21T02:55:34.708Z,9.24
2018-12-21T02:56:34.767Z,9.15
2018-12-21T02:57:34.689Z,9.15
2018-12-21T02:58:34.675Z,9.24
2018-12-21T02:59:34.664Z,9.15
2018-12-21T03:00:34.653Z,9.26
2018-12-21T03:01:34.664Z,9.22
2018-12-21T03:02:34.629Z,9.12
2018-12-21T03:03:34.619Z,9.30
2018-12-21T03:04:34.609Z,9.14
2018-12-21T03:05:34.597Z,9.12
2018-12-21T03:06:34.806Z,9.29
2018-12-21T03:07:34.578Z,9.23
2018-12-21T03:08:34.564Z,9.18
2018-12-21T03:09:34.557Z,9.15
2018-12-21T03:10:34.546Z,9.18
2018-12-21T03:11:34.531Z,9.24
2018-12-21T03:12:34.559Z,9.22
2018-12-21T03:13:34.606Z,9.23
2018-12-21T03:14:34.635Z,9.23
2018-12-21T03:15:34.491Z,9.18
2018-12-21T03:16:34.477Z,9.23
2018-12-21T03:17:34.508Z,9.19
2018-12-21T03:18:34.453Z,9.23
2018-12-21T03:19:34.446Z,9.23
2018-12-21T03:20:34.437Z,9.19
2018-12-21T03:21:34.428Z,9.27
2018-12-21T03:22:34.436Z,9.24
2018-12-21T03:23:34.402Z,9.24
2018-12-21T03:24:34.391Z,9.30
2018-12-21T03:25:34.379Z,9.24
2018-12-21T03:26:44.194Z,9.26
2018-12-21T03:27:42.808Z,9.29
2018-12-21T03:28:34.344Z,9.33
2018-12-21T03:29:34.337Z,9.26
2018-12-21T03:30:34.329Z,9.29
2018-12-21T03:31:34.314Z,9.29
2018-12-21T03:32:34.323Z,9.27
2018-12-21T03:33:34.293Z,9.30
2018-12-21T03:34:34.281Z,9.22
2018-12-21T03:35:34.267Z,9.29
2018-12-21T03:36:34.259Z,9.34
2018-12-21T03:37:34.271Z,9.30
2018-12-21T03:38:34.235Z,9.33
2018-12-21T03:39:34.227Z,9.34
2018-12-21T03:40:34.212Z,9.33
2018-12-21T03:41:34.201Z,9.29
2018-12-21T03:42:34.213Z,9.32
2018-12-21T03:43:34.180Z,9.34
2018-12-21T03:44:34.167Z,9.32
2018-12-21T03:45:34.156Z,9.36
2018-12-21T03:46:34.146Z,9.36
2018-12-21T03:47:34.160Z,9.33
2018-12-21T03:48:34.126Z,9.33
2018-12-21T03:49:34.113Z,9.36
2018-12-21T03:50:34.112Z,9.30
2018-12-21T03:51:34.092Z,9.30
2018-12-21T03:52:34.106Z,9.24
2018-12-21T03:53:34.072Z,9.24
2018-12-21T03:54:34.064Z,9.18
2018-12-21T03:55:34.050Z,9.14
2018-12-21T03:56:34.047Z,9.23
2018-12-21T03:57:34.050Z,9.19
2018-12-21T03:58:34.081Z,9.16
2018-12-21T03:59:34.080Z,9.18
2018-12-21T04:00:34.130Z,9.16
2018-12-21T04:01:33.998Z,9.16
2018-12-21T04:02:33.997Z,9.14
2018-12-21T04:03:33.995Z,9.16
2018-12-21T04:04:33.954Z,9.15
2018-12-21T04:05:33.937Z,9.14
2018-12-21T04:06:42.732Z,9.06
2018-12-21T04:07:43.288Z,9.08
2018-12-21T04:08:33.908Z,9.12
2018-12-21T04:09:33.893Z,9.12
2018-12-21T04:10:33.883Z,9.11
2018-12-21T04:11:33.872Z,9.04
2018-12-21T04:12:33.887Z,9.03
2018-12-21T04:13:33.849Z,9.08
2018-12-21T04:14:33.845Z,9.11
2018-12-21T04:15:43.654Z,9.03
2018-12-21T04:16:33.819Z,9.08
2018-12-21T04:17:42.298Z,9.01
2018-12-21T04:18:33.794Z,9.06
2018-12-21T04:19:33.787Z,9.03
2018-12-21T04:20:33.778Z,9.03
2018-12-21T04:21:33.761Z,9.04
2018-12-21T04:22:34.593Z,9.01
2018-12-21T04:23:42.006Z,9.04
2018-12-21T04:24:33.731Z,9.03
2018-12-21T04:25:33.720Z,9.04
2018-12-21T04:26:33.708Z,9.03
2018-12-21T04:27:33.727Z,9.03
2018-12-21T04:28:42.139Z,8.95
2018-12-21T04:29:33.676Z,9.04
2018-12-21T04:30:33.664Z,9.01
2018-12-21T04:31:33.651Z,8.96
2018-12-21T04:32:33.733Z,9.03
2018-12-21T04:33:33.648Z,9.03
2018-12-21T04:34:42.716Z,9.06
2018-12-21T04:35:33.610Z,9.01
2018-12-21T04:36:33.596Z,9.03
2018-12-21T04:37:33.608Z,9.01
2018-12-21T04:38:33.589Z,9.01
2018-12-21T04:39:33.566Z,9.04
2018-12-21T04:40:33.561Z,9.01
2018-12-21T04:41:33.543Z,9.01
2018-12-21T04:42:33.558Z,8.99
2018-12-21T04:43:33.521Z,9.01
2018-12-21T04:44:33.511Z,8.90
2018-12-21T04:45:33.501Z,8.99
2018-12-21T04:46:33.485Z,8.95
2018-12-21T04:47:33.524Z,8.99
2018-12-21T04:48:33.466Z,8.95
2018-12-21T04:49:33.455Z,8.96
2018-12-21T04:50:33.445Z,8.92
2018-12-21T04:51:33.431Z,8.93
2018-12-21T04:52:33.421Z,8.83
2018-12-21T04:53:33.431Z,8.86
2018-12-21T04:54:33.398Z,8.83
2018-12-21T04:55:33.409Z,8.83
2018-12-21T04:56:33.376Z,8.81
2018-12-21T04:57:33.365Z,8.86
2018-12-21T04:58:33.388Z,8.88
2018-12-21T04:59:33.345Z,8.89
2018-12-21T05:00:33.332Z,8.90
2018-12-21T05:01:33.320Z,8.83
2018-12-21T05:02:33.313Z,8.92
2018-12-21T05:03:41.780Z,8.99
2018-12-21T05:04:33.288Z,8.80
2018-12-21T05:05:33.277Z,8.98
2018-12-21T05:06:33.268Z,8.81
2018-12-21T05:07:33.254Z,8.80
2018-12-21T05:08:33.265Z,8.86
2018-12-21T05:09:33.236Z,8.85
2018-12-21T05:10:33.225Z,8.88
2018-12-21T05:11:33.212Z,8.83
2018-12-21T05:12:41.480Z,8.95
2018-12-21T05:13:33.225Z,8.90
2018-12-21T05:14:33.182Z,8.85
2018-12-21T05:15:33.186Z,8.85
2018-12-21T05:16:33.159Z,8.90
2018-12-21T05:17:33.153Z,8.86
2018-12-21T05:18:33.156Z,8.80
2018-12-21T05:19:33.126Z,8.83
2018-12-21T05:20:33.115Z,8.81
2018-12-21T05:21:33.103Z,8.83
2018-12-21T05:23:26.409Z,8.80
2018-12-21T05:24:26.368Z,8.83
2018-12-21T05:25:26.359Z,8.71
2018-12-21T05:26:26.348Z,8.78
2018-12-21T05:27:26.335Z,8.74
2018-12-21T05:28:26.346Z,8.74
2018-12-21T05:29:26.312Z,8.75
2018-12-21T05:30:26.304Z,8.71
2018-12-21T05:31:28.465Z,8.75
2018-12-21T05:32:26.281Z,8.74
2018-12-21T05:33:26.293Z,8.70
2018-12-21T05:34:26.265Z,8.67
2018-12-21T05:35:26.256Z,8.72
2018-12-21T05:36:26.238Z,8.67
2018-12-21T05:37:26.225Z,8.68
2018-12-21T05:38:26.238Z,8.60
2018-12-21T05:39:26.203Z,8.60
2018-12-21T05:40:26.195Z,8.68
2018-12-21T05:41:26.185Z,8.72
2018-12-21T05:42:26.172Z,8.71
2018-12-21T05:43:26.188Z,8.68
2018-12-21T05:44:26.151Z,8.65
2018-12-21T05:45:26.144Z,8.65
2018-12-21T05:46:26.127Z,8.62
2018-12-21T05:47:26.118Z,8.59
2018-12-21T05:48:34.740Z,8.52
2018-12-21T05:49:26.095Z,8.68
2018-12-21T05:50:26.089Z,8.68
2018-12-21T05:51:26.071Z,8.74
2018-12-21T05:52:26.063Z,8.63
2018-12-21T05:53:26.072Z,8.63
2018-12-21T05:54:26.040Z,8.60
2018-12-21T05:55:26.029Z,8.63
2018-12-21T05:56:26.016Z,8.55
2018-12-21T05:57:34.327Z,8.62
2018-12-21T05:58:26.018Z,8.63
2018-12-21T05:59:35.278Z,8.60
2018-12-21T06:00:25.972Z,8.62
2018-12-21T06:01:25.962Z,8.71
2018-12-21T06:02:25.951Z,8.57
2018-12-21T06:03:25.967Z,8.59
2018-12-21T06:04:25.934Z,8.57
2018-12-21T06:05:25.916Z,8.55
2018-12-21T06:06:25.909Z,8.57
2018-12-21T06:07:25.896Z,8.57
2018-12-21T06:08:35.483Z,8.52
2018-12-21T06:10:19.347Z,8.62
2018-12-21T06:11:19.225Z,8.56
2018-12-21T06:12:19.216Z,8.56
2018-12-21T06:13:19.228Z,8.53
2018-12-21T06:14:19.197Z,8.50
2018-12-21T06:15:19.182Z,8.42
2018-12-21T06:16:19.175Z,8.50
2018-12-21T06:17:19.169Z,8.49
2018-12-21T06:18:28.436Z,8.53
2018-12-21T06:19:19.137Z,8.49
2018-12-21T06:20:19.125Z,8.52
2018-12-21T06:21:19.114Z,8.52
2018-12-21T06:22:19.104Z,8.46
2018-12-21T06:23:19.092Z,8.57
2018-12-21T06:24:19.103Z,8.57
2018-12-21T06:25:19.072Z,8.56
2018-12-21T06:26:19.063Z,8.57
2018-12-21T06:27:19.049Z,8.57
2018-12-21T06:28:19.039Z,8.56
2018-12-21T06:29:27.325Z,8.59
2018-12-21T06:30:19.014Z,8.59
2018-12-21T06:31:19.004Z,8.57
2018-12-21T06:32:18.994Z,8.52
2018-12-21T06:33:18.984Z,8.53
2018-12-21T06:34:18.993Z,8.47
2018-12-21T06:35:18.960Z,8.49
2018-12-21T06:36:18.950Z,8.50
2018-12-21T06:37:29.679Z,8.46
2018-12-21T06:38:18.928Z,8.53
2018-12-21T06:39:18.936Z,8.49
2018-12-21T06:40:18.904Z,8.52
2018-12-21T06:41:18.893Z,8.46
2018-12-21T06:42:18.881Z,8.50
2018-12-21T06:43:18.900Z,8.46
2018-12-21T06:44:18.890Z,8.52
2018-12-21T06:46:14.311Z,8.57
2018-12-21T06:47:13.229Z,8.55
2018-12-21T06:48:13.218Z,8.57
2018-12-21T06:49:13.230Z,8.60
2018-12-21T06:50:13.196Z,8.62
2018-12-21T06:51:13.195Z,8.60
2018-12-21T06:52:13.174Z,8.63
2018-12-21T06:53:17.918Z,8.63
2018-12-21T06:54:13.227Z,8.67
2018-12-21T06:55:13.141Z,8.60
2018-12-21T06:56:13.130Z,8.67
2018-12-21T06:57:21.413Z,8.63
2018-12-21T06:58:13.108Z,8.65
2018-12-21T06:59:22.499Z,8.60
2018-12-21T07:00:13.091Z,8.67
2018-12-21T07:01:13.076Z,8.72
2018-12-21T07:02:13.064Z,8.67
2018-12-21T07:03:16.989Z,8.70
2018-12-21T07:04:13.084Z,8.65
2018-12-21T07:05:13.032Z,8.67
2018-12-21T07:06:21.648Z,8.65
2018-12-21T07:07:21.787Z,8.68
2018-12-21T07:08:13.002Z,8.70
2018-12-21T07:09:13.020Z,8.71
2018-12-21T07:10:12.980Z,8.62
2018-12-21T07:11:12.967Z,8.67
2018-12-21T07:12:12.954Z,8.65
2018-12-21T07:13:12.947Z,8.68
2018-12-21T07:14:12.955Z,8.71
2018-12-21T07:15:12.925Z,8.63
2018-12-21T07:16:12.910Z,8.59
2018-12-21T07:17:12.899Z,8.68
2018-12-21T07:18:12.888Z,8.68
2018-12-21T07:19:12.900Z,8.71
2018-12-21T07:20:12.872Z,8.71
2018-12-21T07:21:12.855Z,8.62
2018-12-21T07:22:12.850Z,8.74
2018-12-21T07:23:12.834Z,8.74
2018-12-21T07:24:12.846Z,8.67
2018-12-21T07:25:12.813Z,8.65
2018-12-21T07:26:12.801Z,8.70
2018-12-21T07:27:12.790Z,8.67
2018-12-21T07:28:12.779Z,8.72
2018-12-21T07:29:12.789Z,8.71
2018-12-21T07:30:12.767Z,8.68
2018-12-21T07:31:21.918Z,8.74
2018-12-21T07:32:12.758Z,8.72
2018-12-21T07:33:12.725Z,8.74
2018-12-21T07:34:21.067Z,8.68
2018-12-21T07:35:12.702Z,8.72
2018-12-21T07:36:12.691Z,8.75
2018-12-21T07:37:12.683Z,8.65
2018-12-21T07:38:12.669Z,8.74
2018-12-21T07:39:12.680Z,8.71
2018-12-21T07:40:12.646Z,8.75
2018-12-21T07:41:21.658Z,8.71
2018-12-21T07:42:22.131Z,8.68
2018-12-21T07:43:12.621Z,8.71
2018-12-21T07:44:12.626Z,8.72
2018-12-21T07:45:12.600Z,8.71
2018-12-21T07:46:12.581Z,8.71
2018-12-21T07:47:12.570Z,8.72
2018-12-21T07:48:12.558Z,8.72
2018-12-21T07:49:12.574Z,8.68
2018-12-21T07:50:12.537Z,8.78
2018-12-21T07:51:12.525Z,8.71
2018-12-21T07:52:12.514Z,8.68
2018-12-21T07:53:12.503Z,8.71
2018-12-21T07:54:12.523Z,8.68
2018-12-21T07:55:12.483Z,8.77
2018-12-21T07:56:12.473Z,8.68
2018-12-21T07:57:12.464Z,8.72
2018-12-21T07:58:12.451Z,8.71
2018-12-21T07:59:12.519Z,8.71
2018-12-21T08:00:12.428Z,8.75
2018-12-21T08:01:20.804Z,8.78
2018-12-21T08:02:21.022Z,8.77
2018-12-21T08:03:12.415Z,8.71
2018-12-21T08:04:12.405Z,8.77
2018-12-21T08:05:12.396Z,8.78
2018-12-21T08:06:12.370Z,8.71
2018-12-21T08:07:12.371Z,8.77
2018-12-21T08:08:12.407Z,8.70
2018-12-21T08:09:12.330Z,8.77
2018-12-21T08:10:12.341Z,8.75
2018-12-21T08:11:12.306Z,8.77
2018-12-21T08:12:12.479Z,8.81
2018-12-21T08:13:12.593Z,8.75
2018-12-21T08:14:12.278Z,8.65
2018-12-21T08:15:12.286Z,8.72
2018-12-21T08:16:12.251Z,8.71
2018-12-21T08:17:12.277Z,8.75
2018-12-21T08:18:12.368Z,8.71
2018-12-21T08:19:12.375Z,8.72
2018-12-21T08:20:21.591Z,8.72
2018-12-21T08:21:21.616Z,8.70
2018-12-21T08:22:12.196Z,8.77
2018-12-21T08:23:12.195Z,8.85
2018-12-21T08:24:12.216Z,8.86
2018-12-21T08:25:12.217Z,8.75
2018-12-21T08:26:12.140Z,8.78
2018-12-21T08:27:12.128Z,8.77
2018-12-21T08:28:21.517Z,8.75
2018-12-21T08:29:12.108Z,8.74
2018-12-21T08:30:12.123Z,8.72
2018-12-21T08:31:12.084Z,8.71
2018-12-21T08:32:21.427Z,8.75
2018-12-21T08:33:12.062Z,8.75
2018-12-21T08:34:12.054Z,8.68
2018-12-21T08:35:12.074Z,8.74
2018-12-21T08:36:12.029Z,8.67
2018-12-21T08:37:12.023Z,8.78
2018-12-21T08:38:12.007Z,8.81
2018-12-21T08:39:11.997Z,8.80
2018-12-21T08:40:12.008Z,8.81
2018-12-21T08:41:11.975Z,8.80
2018-12-21T08:42:11.965Z,8.78
2018-12-21T08:43:11.957Z,8.83
2018-12-21T08:44:11.942Z,8.78
2018-12-21T08:45:11.958Z,8.88
2018-12-21T08:46:11.926Z,8.89
2018-12-21T08:47:11.911Z,8.86
2018-12-21T08:48:21.238Z,8.92
2018-12-21T08:49:11.888Z,8.83
2018-12-21T08:50:11.899Z,8.90
2018-12-21T08:51:11.865Z,8.83
2018-12-21T08:52:11.857Z,8.81
2018-12-21T08:53:11.844Z,8.90
2018-12-21T08:54:20.439Z,9.01
2018-12-21T08:55:12.097Z,8.86
2018-12-21T08:56:11.810Z,8.89
2018-12-21T08:57:11.800Z,8.98
2018-12-21T08:58:11.787Z,8.96
2018-12-21T08:59:11.782Z,8.95
2018-12-21T09:00:11.795Z,8.90
2018-12-21T09:01:11.765Z,9.01
2018-12-21T09:02:11.745Z,8.95
2018-12-21T09:03:11.732Z,9.01
2018-12-21T09:04:20.076Z,9.03
2018-12-21T09:05:12.003Z,9.04
2018-12-21T09:06:18.380Z,8.99
2018-12-21T09:07:11.691Z,8.99
2018-12-21T09:08:11.680Z,9.03
2018-12-21T09:09:11.671Z,9.04
2018-12-21T09:10:19.994Z,8.98
2018-12-21T09:11:11.766Z,9.06
2018-12-21T09:12:11.753Z,9.12
2018-12-21T09:13:12.117Z,9.04
2018-12-21T09:14:11.616Z,9.04
2018-12-21T09:15:11.625Z,9.08
2018-12-21T09:16:11.590Z,9.12
2018-12-21T09:17:20.430Z,9.06
2018-12-21T09:18:11.568Z,9.12
2018-12-21T09:19:11.557Z,9.09
2018-12-21T09:20:11.650Z,9.15
2018-12-21T09:21:11.633Z,9.22
2018-12-21T09:22:20.911Z,9.26
2018-12-21T09:23:11.514Z,9.24
2018-12-21T09:24:11.505Z,9.29
2018-12-21T09:25:11.519Z,9.22
2018-12-21T09:26:11.480Z,9.23
2018-12-21T09:27:11.469Z,9.29
2018-12-21T09:28:11.461Z,9.26
2018-12-21T09:29:11.449Z,9.26
2018-12-21T09:30:11.459Z,9.29
2018-12-21T09:31:11.425Z,9.29
2018-12-21T09:32:11.415Z,9.32
2018-12-21T09:33:11.406Z,9.29
2018-12-21T09:34:11.394Z,9.29
2018-12-21T09:35:11.405Z,9.37
2018-12-21T09:36:11.369Z,9.50
2018-12-21T09:37:11.359Z,9.45
2018-12-21T09:38:11.349Z,9.50
2018-12-21T09:39:11.338Z,9.54
2018-12-21T09:40:11.350Z,9.48
2018-12-21T09:41:11.318Z,9.59
2018-12-21T09:42:11.308Z,9.54
2018-12-21T09:43:11.294Z,9.54
2018-12-21T09:44:11.284Z,9.62
2018-12-21T09:45:11.294Z,9.66
2018-12-21T09:46:11.330Z,9.57
2018-12-21T09:47:11.251Z,9.65
2018-12-21T09:48:11.237Z,9.59
2018-12-21T09:49:11.227Z,9.60
2018-12-21T09:50:11.256Z,9.62
2018-12-21T09:51:11.208Z,9.69
2018-12-21T09:52:11.196Z,9.62
2018-12-21T09:53:11.184Z,9.65
2018-12-21T09:54:11.177Z,9.69
2018-12-21T09:55:11.162Z,9.67
2018-12-21T09:56:21.559Z,9.59
2018-12-21T09:57:11.150Z,9.72
2018-12-21T09:58:11.130Z,9.72
2018-12-21T09:59:11.123Z,9.72
2018-12-21T10:00:11.107Z,9.80
2018-12-21T10:01:11.133Z,9.70
2018-12-21T10:02:11.085Z,9.70
2018-12-21T10:03:11.074Z,9.81
2018-12-21T10:04:11.062Z,9.72
2018-12-21T10:05:11.053Z,9.75
2018-12-21T10:06:11.070Z,9.87
2018-12-21T10:07:11.029Z,9.90
2018-12-21T10:08:11.018Z,9.91
2018-12-21T10:09:11.027Z,9.94
2018-12-21T10:10:11.001Z,10.02
2018-12-21T10:11:11.007Z,9.94
2018-12-21T10:12:10.974Z,10.03
2018-12-21T10:13:21.575Z,10.03
2018-12-21T10:14:11.188Z,10.01
2018-12-21T10:15:10.946Z,10.06
2018-12-21T10:16:10.998Z,10.02
2018-12-21T10:17:10.987Z,10.09
2018-12-21T10:18:10.927Z,10.17
2018-12-21T10:19:10.936Z,10.18
2018-12-21T10:20:10.887Z,10.01
2018-12-21T10:21:10.898Z,10.20
2018-12-21T10:22:10.874Z,10.14
2018-12-21T10:23:10.853Z,10.06
2018-12-21T10:24:18.295Z,10.14
2018-12-21T10:25:10.834Z,10.16
2018-12-21T10:26:10.843Z,10.21
2018-12-21T10:27:10.810Z,10.24
2018-12-21T10:28:10.800Z,10.20
2018-12-21T10:29:10.791Z,10.20
2018-12-21T10:30:10.793Z,10.30
2018-12-21T10:31:10.789Z,10.34
2018-12-21T10:32:10.757Z,10.36
2018-12-21T10:33:10.749Z,10.49
2018-12-21T10:34:10.950Z,10.49
2018-12-21T10:35:10.723Z,10.55
2018-12-21T10:36:10.736Z,10.55
2018-12-21T10:37:10.701Z,10.65
2018-12-21T10:38:10.689Z,10.68
2018-12-21T10:39:10.679Z,10.72
2018-12-21T10:40:10.695Z,10.78
2018-12-21T10:41:19.459Z,10.67
2018-12-21T10:42:10.645Z,10.85
2018-12-21T10:43:10.636Z,10.87
2018-12-21T10:44:10.622Z,11.03
2018-12-21T10:45:10.614Z,11.04
2018-12-21T10:46:10.624Z,11.25
2018-12-21T10:47:10.589Z,11.23
2018-12-21T10:48:10.584Z,11.27
2018-12-21T10:49:10.568Z,11.38
2018-12-21T10:50:10.585Z,11.37
2018-12-21T10:51:10.583Z,11.41
2018-12-21T10:52:19.270Z,11.41
2018-12-21T10:53:10.525Z,11.51
2018-12-21T10:54:10.514Z,11.55
2018-12-21T10:55:10.503Z,11.56
2018-12-21T10:56:10.514Z,11.66
2018-12-21T10:57:10.478Z,11.69
2018-12-21T10:58:10.471Z,11.62
2018-12-21T10:59:10.459Z,11.66
2018-12-21T11:00:10.451Z,11.70
2018-12-21T11:01:10.459Z,11.73
2018-12-21T11:02:10.439Z,11.80
2018-12-21T11:03:10.416Z,11.79
2018-12-21T11:04:10.408Z,11.84
2018-12-21T11:05:10.396Z,11.87
2018-12-21T11:06:10.407Z,11.96
2018-12-21T11:07:10.369Z,12.00
2018-12-21T11:08:10.363Z,12.13
2018-12-21T11:09:10.348Z,12.04
2018-12-21T11:10:10.341Z,12.07
2018-12-21T11:11:10.349Z,12.11
2018-12-21T11:12:18.779Z,12.18
2018-12-21T11:13:10.306Z,12.14
2018-12-21T11:14:10.318Z,12.18
2018-12-21T11:15:10.286Z,12.15
2018-12-21T11:16:10.295Z,12.23
2018-12-21T11:17:10.262Z,12.25
2018-12-21T11:18:10.248Z,12.30
2018-12-21T11:19:19.012Z,12.32
2018-12-21T11:20:10.229Z,12.38
2018-12-21T11:21:10.238Z,12.40
2018-12-21T11:22:10.208Z,12.36
2018-12-21T11:23:10.192Z,12.32
2018-12-21T11:24:10.183Z,12.40
2018-12-21T11:25:10.173Z,12.40
2018-12-21T11:26:10.188Z,12.35
2018-12-21T11:27:10.204Z,12.41
2018-12-21T11:28:10.139Z,12.41
2018-12-21T11:29:10.127Z,12.47
2018-12-21T11:30:10.116Z,12.44
2018-12-21T11:31:10.128Z,12.55
2018-12-21T11:32:18.921Z,12.55
2018-12-21T11:33:10.146Z,12.61
2018-12-21T11:34:10.078Z,12.61
2018-12-21T11:35:10.062Z,12.66
2018-12-21T11:36:10.086Z,12.66
2018-12-21T11:37:10.037Z,12.76
2018-12-21T11:38:10.377Z,12.71
2018-12-21T11:39:10.021Z,12.76
2018-12-21T11:40:10.013Z,12.76
2018-12-21T11:41:19.835Z,12.76
2018-12-21T11:42:09.988Z,12.80
2018-12-21T11:43:09.996Z,12.81
2018-12-21T11:44:09.967Z,12.84
2018-12-21T11:45:09.955Z,12.90
2018-12-21T11:46:10.061Z,12.96
2018-12-21T11:47:10.186Z,12.90
2018-12-21T11:48:09.920Z,12.96
2018-12-21T11:49:09.906Z,12.95
2018-12-21T11:50:09.914Z,12.99
2018-12-21T11:51:09.925Z,12.96
2018-12-21T11:52:09.897Z,12.96
2018-12-21T11:53:09.865Z,13.01
2018-12-21T11:54:09.851Z,12.90
2018-12-21T11:56:04.956Z,13.01
2018-12-21T11:58:14.938Z,13.01
2018-12-21T11:59:14.924Z,12.99
2018-12-21T12:00:15.249Z,13.01
2018-12-21T12:01:14.906Z,12.99
2018-12-21T12:02:19.535Z,12.96
2018-12-21T12:03:14.877Z,12.95
2018-12-21T12:04:14.870Z,12.96
2018-12-21T12:05:14.855Z,12.99
2018-12-21T12:06:14.845Z,13.05
2018-12-21T12:07:14.858Z,13.05
2018-12-21T12:08:14.825Z,13.04
2018-12-21T12:09:14.812Z,13.05
2018-12-21T12:10:25.242Z,13.05
2018-12-21T12:11:14.800Z,13.04
2018-12-21T12:12:14.802Z,13.04
2018-12-21T12:13:14.767Z,13.13
2018-12-21T12:14:14.759Z,13.14
2018-12-21T12:15:14.751Z,13.19
2018-12-21T12:16:14.737Z,13.09
2018-12-21T12:17:23.584Z,13.20
2018-12-21T12:18:14.712Z,13.21
2018-12-21T12:19:14.715Z,13.16
2018-12-21T12:20:14.692Z,13.16
2018-12-21T12:21:14.679Z,13.30
2018-12-21T12:22:14.696Z,13.23
2018-12-21T12:23:14.660Z,13.32
2018-12-21T12:24:14.658Z,13.26
2018-12-21T12:25:14.637Z,13.27
2018-12-21T12:26:14.629Z,13.26
2018-12-21T12:27:23.979Z,13.29
2018-12-21T12:28:23.782Z,13.32
2018-12-21T12:29:14.592Z,13.29
2018-12-21T12:30:14.582Z,13.29
2018-12-21T12:31:14.569Z,13.39
2018-12-21T12:32:14.581Z,13.45
2018-12-21T12:33:14.552Z,13.46
2018-12-21T12:34:14.538Z,13.43
2018-12-21T12:35:14.540Z,13.45
2018-12-21T12:36:14.513Z,13.47
2018-12-21T12:37:14.526Z,13.58
2018-12-21T12:38:14.495Z,13.65
2018-12-21T12:39:14.482Z,13.65
2018-12-21T12:40:14.469Z,13.61
2018-12-21T12:41:23.723Z,13.60
2018-12-21T12:42:14.478Z,13.61
2018-12-21T12:43:14.436Z,13.75
2018-12-21T12:44:14.483Z,13.72
2018-12-21T12:45:14.417Z,13.73
2018-12-21T12:46:14.405Z,13.71
2018-12-21T12:47:14.415Z,13.75
2018-12-21T12:48:23.910Z,13.83
2018-12-21T12:49:14.374Z,13.80
2018-12-21T12:50:14.359Z,13.85
2018-12-21T12:51:14.350Z,13.90
2018-12-21T12:52:14.358Z,13.83
2018-12-21T12:53:14.327Z,13.85
2018-12-21T12:54:14.314Z,13.88
2018-12-21T12:55:14.303Z,13.98
2018-12-21T12:56:14.293Z,14.01
2018-12-21T12:57:14.317Z,14.08
2018-12-21T12:58:14.273Z,14.08
2018-12-21T12:59:14.260Z,14.03
2018-12-21T13:00:14.248Z,14.01
2018-12-21T13:01:14.237Z,14.05
2018-12-21T13:02:14.254Z,14.08
2018-12-21T13:03:14.218Z,13.98
2018-12-21T13:04:14.203Z,14.05
2018-12-21T13:05:14.193Z,14.08
2018-12-21T13:06:14.193Z,14.08
2018-12-21T13:07:14.243Z,14.18
2018-12-21T13:08:14.163Z,14.13
2018-12-21T13:09:14.151Z,14.12
2018-12-21T13:10:14.142Z,14.22
2018-12-21T13:11:14.127Z,14.19
2018-12-21T13:12:14.138Z,14.23
2018-12-21T13:13:23.054Z,14.22
2018-12-21T13:14:14.094Z,14.18
2018-12-21T13:15:14.084Z,14.26
2018-12-21T13:16:14.074Z,14.21
2018-12-21T13:17:14.103Z,14.15